createdAt,value
2023-04-23T00:01:04.392Z,12.40
2023-04-23T00:03:12.975Z,12.40
2023-04-23T00:05:16.527Z,12.40
2023-04-23T00:07:22.034Z,12.50
2023-04-23T00:09:24.411Z,12.40
2023-04-23T00:11:26.294Z,12.40
2023-04-23T00:13:28.393Z,12.40
2023-04-23T00:15:30.512Z,12.40
2023-04-23T00:17:32.492Z,12.40
2023-04-23T00:19:34.180Z,12.40
2023-04-23T00:21:36.420Z,12.40
2023-04-23T00:23:38.861Z,12.30
2023-04-23T00:25:40.686Z,12.20
2023-04-23T00:27:42.482Z,12.20
2023-04-23T00:29:46.391Z,12.20
2023-04-23T00:31:48.042Z,12.20
2023-04-23T00:33:50.087Z,12.10
2023-04-23T00:35:52.516Z,12.10
2023-04-23T00:37:54.193Z,12.10
2023-04-23T00:39:56.016Z,12.10
2023-04-23T00:41:59.119Z,12.10
2023-04-23T00:44:00.924Z,12.00
2023-04-23T00:46:04.210Z,12.00
2023-04-23T00:48:07.080Z,12.00
2023-04-23T00:50:09.774Z,12.00
2023-04-23T00:52:11.639Z,12.00
2023-04-23T00:54:14.287Z,12.10
2023-04-23T00:56:17.688Z,12.10
2023-04-23T00:58:19.586Z,12.00
2023-04-23T01:00:21.765Z,12.10
2023-04-23T01:02:25.010Z,12.00
2023-04-23T01:04:29.847Z,12.00
2023-04-23T01:06:31.688Z,12.10
2023-04-23T01:08:34.906Z,12.10
2023-04-23T01:10:36.749Z,12.00
2023-04-23T01:12:38.841Z,12.00
2023-04-23T01:14:41.651Z,11.90
2023-04-23T01:16:43.594Z,11.90
2023-04-23T01:18:45.327Z,11.80
2023-04-23T01:20:47.179Z,11.70
2023-04-23T01:22:49.070Z,11.60
2023-04-23T01:24:51.679Z,11.50
2023-04-23T01:26:53.752Z,11.40
2023-04-23T01:28:55.786Z,11.30
2023-04-23T01:30:59.070Z,11.20
2023-04-23T01:33:01.766Z,11.10
2023-04-23T01:35:04.733Z,11.00
2023-04-23T01:37:07.253Z,10.90
2023-04-23T01:39:09.561Z,10.90
2023-04-23T01:41:11.255Z,10.80
2023-04-23T01:43:13.031Z,10.80
2023-04-23T01:45:15.625Z,10.80
2023-04-23T01:47:18.873Z,10.60
2023-04-23T01:49:20.748Z,10.60
2023-04-23T01:51:23.676Z,10.50
2023-04-23T01:53:25.547Z,10.50
2023-04-23T01:55:27.402Z,10.50
2023-04-23T01:57:29.408Z,10.40
2023-04-23T01:59:31.240Z,10.40
2023-04-23T02:01:46.721Z,10.40
2023-04-23T02:03:50.625Z,10.40
2023-04-23T02:05:54.906Z,10.40
2023-04-23T02:07:57.226Z,10.40
2023-04-23T02:09:59.143Z,10.30
2023-04-23T02:12:01.726Z,10.40
2023-04-23T02:14:04.161Z,10.30
2023-04-23T02:16:06.332Z,10.30
2023-04-23T02:18:08.026Z,10.30
2023-04-23T02:20:11.295Z,10.30
2023-04-23T02:22:13.097Z,10.20
2023-04-23T02:24:14.739Z,10.20
2023-04-23T02:26:16.662Z,10.20
2023-04-23T02:28:18.362Z,10.20
2023-04-23T02:30:20.205Z,10.10
2023-04-23T02:32:21.969Z,10.10
2023-04-23T02:34:23.709Z,10.10
2023-04-23T02:36:25.760Z,10.10
2023-04-23T02:38:27.586Z,10.10
2023-04-23T02:40:29.310Z,10.10
2023-04-23T02:42:30.961Z,10.00
2023-04-23T02:44:32.971Z,10.00
2023-04-23T02:46:36.228Z,10.00
2023-04-23T02:48:40.524Z,10.00
2023-04-23T02:50:42.841Z,10.00
2023-04-23T02:52:44.663Z,10.00
2023-04-23T02:54:46.294Z,10.00
2023-04-23T02:56:48.065Z,10.00
2023-04-23T02:58:49.864Z,10.00
2023-04-23T03:00:51.702Z,10.00
2023-04-23T03:02:53.591Z,9.90
2023-04-23T03:04:55.323Z,9.90
2023-04-23T03:06:57.272Z,9.90
2023-04-23T03:08:58.880Z,9.90
2023-04-23T03:11:00.554Z,9.90
2023-04-23T03:13:02.219Z,9.90
2023-04-23T03:15:04.150Z,9.90
2023-04-23T03:17:06.422Z,9.80
2023-04-23T03:19:08.136Z,9.90
2023-04-23T03:21:09.833Z,9.80
2023-04-23T03:23:11.537Z,9.90
2023-04-23T03:25:13.170Z,9.90
2023-04-23T03:27:14.915Z,9.90
2023-04-23T03:29:16.616Z,9.90
2023-04-23T03:31:18.400Z,9.90
2023-04-23T03:33:20.255Z,9.90
2023-04-23T03:35:22.185Z,9.90
2023-04-23T03:37:24.039Z,9.90
2023-04-23T03:39:25.816Z,9.90
2023-04-23T03:41:27.539Z,9.90
2023-04-23T03:43:29.374Z,9.80
2023-04-23T03:45:31.205Z,9.80
2023-04-23T03:47:32.965Z,9.80
2023-04-23T03:49:34.674Z,9.80
2023-04-23T03:51:36.339Z,9.70
2023-04-23T03:53:37.999Z,9.70
2023-04-23T03:55:39.773Z,9.70
2023-04-23T03:57:41.414Z,9.70
2023-04-23T03:59:43.078Z,9.70
2023-04-23T04:01:44.779Z,9.70
2023-04-23T04:03:46.747Z,9.70
2023-04-23T04:05:48.774Z,9.70
2023-04-23T04:07:50.468Z,9.70
2023-04-23T04:09:52.331Z,9.60
2023-04-23T04:11:54.254Z,9.60
2023-04-23T04:13:56.189Z,9.70
2023-04-23T04:15:57.856Z,9.70
2023-04-23T04:18:01.159Z,9.70
2023-04-23T04:20:03.092Z,9.70
2023-04-23T04:22:04.867Z,9.70
2023-04-23T04:24:06.665Z,9.70
2023-04-23T04:26:08.484Z,9.70
2023-04-23T04:28:11.862Z,9.70
2023-04-23T04:30:14.337Z,9.70
2023-04-23T04:32:16.261Z,9.70
2023-04-23T04:34:18.044Z,9.70
2023-04-23T04:36:19.685Z,9.70
2023-04-23T04:38:22.331Z,9.70
2023-04-23T04:40:23.957Z,9.70
2023-04-23T04:42:25.782Z,9.70
2023-04-23T04:44:27.419Z,9.70
2023-04-23T04:46:29.477Z,9.70
2023-04-23T04:48:31.214Z,9.70
2023-04-23T04:50:32.940Z,9.70
2023-04-23T04:52:35.790Z,9.70
2023-04-23T04:54:37.579Z,9.70
2023-04-23T04:56:39.460Z,9.70
2023-04-23T04:58:41.194Z,9.70
2023-04-23T05:00:43.302Z,9.70
2023-04-23T05:02:45.116Z,9.70
2023-04-23T05:04:46.945Z,9.70
2023-04-23T05:06:48.702Z,9.70
2023-04-23T05:08:50.676Z,9.70
2023-04-23T05:10:54.016Z,9.70
2023-04-23T05:12:58.869Z,9.80
2023-04-23T05:15:00.577Z,9.80
2023-04-23T05:17:02.301Z,9.80
2023-04-23T05:19:04.051Z,9.80
2023-04-23T05:21:09.280Z,9.80
2023-04-23T05:23:11.340Z,9.80
2023-04-23T05:25:13.159Z,9.90
2023-04-23T05:27:14.784Z,9.90
2023-04-23T05:29:19.294Z,10.00
2023-04-23T05:31:21.605Z,10.00
2023-04-23T05:33:23.294Z,10.00
2023-04-23T05:35:25.100Z,10.10
2023-04-23T05:37:26.781Z,10.20
2023-04-23T05:39:28.578Z,10.30
2023-04-23T05:41:30.448Z,10.30
2023-04-23T05:43:32.086Z,10.40
2023-04-23T05:45:33.763Z,10.40
2023-04-23T05:47:35.554Z,10.40
2023-04-23T05:49:37.305Z,10.50
2023-04-23T05:51:39.033Z,10.50
2023-04-23T05:53:40.717Z,10.50
2023-04-23T05:55:42.486Z,10.60
2023-04-23T05:57:44.502Z,10.60
2023-04-23T05:59:46.240Z,10.80
2023-04-23T06:01:48.991Z,10.80
2023-04-23T06:03:51.091Z,10.90
2023-04-23T06:05:52.910Z,11.00
2023-04-23T06:07:54.687Z,11.00
2023-04-23T06:09:56.389Z,11.10
2023-04-23T06:11:58.101Z,11.10
2023-04-23T06:13:59.768Z,11.20
2023-04-23T06:16:01.553Z,11.20
2023-04-23T06:18:03.394Z,11.20
2023-04-23T06:20:05.927Z,11.30
2023-04-23T06:22:07.799Z,11.30
2023-04-23T06:24:09.536Z,11.30
2023-04-23T06:26:11.333Z,11.30
2023-04-23T06:28:13.045Z,11.40
2023-04-23T06:30:14.833Z,11.60
2023-04-23T06:32:19.051Z,11.70
2023-04-23T06:34:22.078Z,11.70
2023-04-23T06:36:23.969Z,11.60
2023-04-23T06:38:25.763Z,11.60
2023-04-23T06:40:27.547Z,11.80
2023-04-23T06:42:29.325Z,12.10
2023-04-23T06:44:30.957Z,12.20
2023-04-23T06:46:32.838Z,12.50
2023-04-23T06:48:34.624Z,12.80
2023-04-23T06:50:36.280Z,13.10
2023-04-23T06:52:37.968Z,13.20
2023-04-23T06:54:39.957Z,13.10
2023-04-23T06:56:41.798Z,13.00
2023-04-23T06:58:43.493Z,12.90
2023-04-23T07:00:45.657Z,12.80
2023-04-23T07:02:47.473Z,12.70
2023-04-23T07:04:49.193Z,12.70
2023-04-23T07:06:50.812Z,12.70
2023-04-23T07:08:52.487Z,12.60
2023-04-23T07:10:54.302Z,12.60
2023-04-23T07:12:56.013Z,12.80
2023-04-23T07:14:57.732Z,12.90
2023-04-23T07:16:59.615Z,13.10
2023-04-23T07:19:02.249Z,13.90
2023-04-23T07:21:04.069Z,15.00
2023-04-23T07:23:05.852Z,16.10
2023-04-23T07:25:08.789Z,17.00
2023-04-23T07:27:10.579Z,16.70
2023-04-23T07:29:14.116Z,16.40
2023-04-23T07:31:16.109Z,16.10
2023-04-23T07:33:18.144Z,16.00
2023-04-23T07:35:19.930Z,16.50
2023-04-23T07:37:22.180Z,16.50
2023-04-23T07:39:23.822Z,16.40
2023-04-23T07:41:25.687Z,16.40
2023-04-23T07:43:27.415Z,16.60
2023-04-23T07:45:29.085Z,16.70
2023-04-23T07:47:30.799Z,16.80
2023-04-23T07:49:32.488Z,16.40
2023-04-23T07:51:34.276Z,16.00
2023-04-23T07:53:35.932Z,15.70
2023-04-23T07:55:37.692Z,15.60
2023-04-23T07:57:39.468Z,15.60
2023-04-23T07:59:41.538Z,15.50
2023-04-23T08:01:43.876Z,16.10
2023-04-23T08:03:45.833Z,16.60
2023-04-23T08:05:47.720Z,17.00
2023-04-23T08:07:49.440Z,18.10
2023-04-23T08:09:51.112Z,19.00
2023-04-23T08:11:52.820Z,19.20
2023-04-23T08:13:54.499Z,20.10
2023-04-23T08:15:56.258Z,21.30
2023-04-23T08:17:58.338Z,21.80
2023-04-23T08:20:00.059Z,22.20
2023-04-23T08:22:02.017Z,23.10
2023-04-23T08:24:04.426Z,23.40
2023-04-23T08:26:06.321Z,23.00
2023-04-23T08:28:08.018Z,22.70
2023-04-23T08:30:10.033Z,23.10
2023-04-23T08:32:11.843Z,23.10
2023-04-23T08:34:15.287Z,23.10
2023-04-23T08:36:16.954Z,22.50
2023-04-23T08:38:18.679Z,22.10
2023-04-23T08:40:20.488Z,21.10
2023-04-23T08:42:29.404Z,20.50
2023-04-23T08:44:32.252Z,20.10
2023-04-23T08:46:38.019Z,20.50
2023-04-23T08:48:40.607Z,20.60
2023-04-23T08:50:46.778Z,19.10
2023-04-23T08:52:56.856Z,18.90
2023-04-23T08:55:01.107Z,18.70
2023-04-23T08:57:03.059Z,18.70
2023-04-23T08:59:05.288Z,18.80
2023-04-23T09:01:08.071Z,18.50
2023-04-23T09:03:10.066Z,18.50
2023-04-23T09:05:12.951Z,18.40
2023-04-23T09:07:15.416Z,18.50
2023-04-23T09:09:19.993Z,18.80
2023-04-23T09:11:24.111Z,19.10
2023-04-23T09:13:26.008Z,19.00
2023-04-23T09:15:27.684Z,18.70
2023-04-23T09:17:30.697Z,18.70
2023-04-23T09:19:32.639Z,18.30
2023-04-23T09:21:35.299Z,18.60
2023-04-23T09:23:39.652Z,19.00
2023-04-23T09:25:41.784Z,19.30
2023-04-23T09:27:43.988Z,19.00
2023-04-23T09:29:45.765Z,18.60
2023-04-23T09:31:49.617Z,18.50
2023-04-23T09:33:54.583Z,18.50
2023-04-23T09:35:56.642Z,18.50
2023-04-23T09:37:58.272Z,18.50
2023-04-23T09:40:02.039Z,18.30
2023-04-23T09:42:05.671Z,18.20
2023-04-23T09:44:09.039Z,17.00
2023-04-23T09:46:10.896Z,16.40
2023-04-23T09:48:12.604Z,16.20
2023-04-23T09:50:14.582Z,16.30
2023-04-23T09:52:16.828Z,16.40
2023-04-23T09:54:23.443Z,16.80
2023-04-23T09:56:25.343Z,17.10
2023-04-23T09:58:28.853Z,17.40
2023-04-23T10:00:38.269Z,18.30
2023-04-23T10:02:41.067Z,18.70
2023-04-23T10:04:43.090Z,19.50
2023-04-23T10:06:53.434Z,20.30
2023-04-23T10:09:04.117Z,21.50
2023-04-23T10:11:19.843Z,22.70
2023-04-23T10:13:22.269Z,23.70
2023-04-23T10:15:26.666Z,23.70
2023-04-23T10:17:28.582Z,23.40
2023-04-23T10:19:32.064Z,23.30
2023-04-23T10:21:42.585Z,22.50
2023-04-23T10:23:52.283Z,22.60
2023-04-23T10:25:56.196Z,22.00
2023-04-23T10:28:00.128Z,20.50
2023-04-23T10:30:04.138Z,20.40
2023-04-23T10:32:07.693Z,20.80
2023-04-23T10:34:12.946Z,21.90
2023-04-23T10:36:15.563Z,22.40
2023-04-23T10:38:18.226Z,22.10
2023-04-23T10:40:27.897Z,21.40
2023-04-23T10:42:29.716Z,22.00
2023-04-23T10:47:02.250Z,21.00
2023-04-23T10:49:15.860Z,20.40
2023-04-23T10:52:02.429Z,21.10
2023-04-23T10:53:42.159Z,21.60
2023-04-23T10:55:43.929Z,21.40
2023-04-23T10:58:01.175Z,21.60
2023-04-23T11:00:04.637Z,21.40
2023-04-23T11:02:11.675Z,21.60
2023-04-23T11:04:21.952Z,21.60
2023-04-23T11:06:48.938Z,22.10
2023-04-23T11:08:56.594Z,22.20
2023-04-23T11:11:00.389Z,22.00
2023-04-23T11:13:22.988Z,22.20
2023-04-23T11:15:24.841Z,22.10
2023-04-23T11:17:32.405Z,22.40
2023-04-23T11:19:37.577Z,22.00
2023-04-23T11:22:02.417Z,22.00
2023-04-23T11:24:07.623Z,21.90
2023-04-23T11:26:09.448Z,21.60
2023-04-23T11:28:11.434Z,21.20
2023-04-23T11:30:14.267Z,21.20
2023-04-23T11:32:17.399Z,21.20
2023-04-23T11:34:19.457Z,21.10
2023-04-23T11:36:22.678Z,21.40
2023-04-23T11:38:31.194Z,21.80
2023-04-23T11:40:34.678Z,22.10
2023-04-23T11:42:46.660Z,22.20
2023-04-23T11:44:48.352Z,21.70
2023-04-23T11:46:50.850Z,21.70
2023-04-23T11:48:52.919Z,21.20
2023-04-23T11:50:55.054Z,20.70
2023-04-23T11:52:57.074Z,20.50
2023-04-23T11:55:04.059Z,20.50
2023-04-23T11:57:06.845Z,20.90
2023-04-23T11:59:08.877Z,21.10
2023-04-23T12:01:13.745Z,21.40
2023-04-23T12:03:16.573Z,21.70
2023-04-23T12:05:33.617Z,22.00
2023-04-23T12:07:35.389Z,21.60
2023-04-23T12:09:38.218Z,22.00
2023-04-23T12:11:41.953Z,22.30
2023-04-23T12:13:45.696Z,23.00
2023-04-23T12:15:52.463Z,22.80
2023-04-23T12:18:09.606Z,23.30
2023-04-23T12:20:16.286Z,24.10
2023-04-23T12:22:30.613Z,24.00
2023-04-23T12:24:47.716Z,23.40
2023-04-23T12:26:54.354Z,22.80
2023-04-23T12:29:00.189Z,22.20
2023-04-23T12:31:02.987Z,21.20
2023-04-23T12:33:09.322Z,20.50
2023-04-23T12:35:12.220Z,20.00
2023-04-23T12:37:13.929Z,19.30
2023-04-23T12:39:21.850Z,19.20
2023-04-23T12:41:23.610Z,19.50
2023-04-23T12:43:26.526Z,20.60
2023-04-23T12:45:37.413Z,21.40
2023-04-23T12:47:39.134Z,22.00
2023-04-23T12:49:42.258Z,22.40
2023-04-23T12:51:44.108Z,22.70
2023-04-23T12:53:46.832Z,23.30
2023-04-23T12:55:50.080Z,23.10
2023-04-23T12:57:51.829Z,22.10
2023-04-23T12:59:55.029Z,22.40
2023-04-23T13:01:57.673Z,22.50
2023-04-23T13:03:59.694Z,22.20
2023-04-23T13:06:01.470Z,21.80
2023-04-23T13:08:03.115Z,21.40
2023-04-23T13:10:05.710Z,21.50
2023-04-23T13:12:07.393Z,22.00
2023-04-23T13:14:09.654Z,22.70
2023-04-23T13:16:11.790Z,22.10
2023-04-23T13:18:13.627Z,21.50
2023-04-23T13:20:15.556Z,21.60
2023-04-23T13:22:17.506Z,22.20
2023-04-23T13:24:19.170Z,21.70
2023-04-23T13:26:21.308Z,22.20
2023-04-23T13:28:23.157Z,22.30
2023-04-23T13:30:24.910Z,22.60
2023-04-23T13:32:31.806Z,23.00
2023-04-23T13:34:34.512Z,23.40
2023-04-23T13:36:37.419Z,23.30
2023-04-23T13:38:39.097Z,23.50
2023-04-23T13:40:40.851Z,23.40
2023-04-23T13:42:42.538Z,23.30
2023-04-23T13:44:44.219Z,23.00
2023-04-23T13:46:46.003Z,22.80
2023-04-23T13:48:47.739Z,23.10
2023-04-23T13:50:49.549Z,23.50
2023-04-23T13:52:51.211Z,23.90
2023-04-23T13:54:54.577Z,24.00
2023-04-23T13:56:56.536Z,23.90
2023-04-23T13:59:18.912Z,24.10
2023-04-23T14:01:22.623Z,23.30
2023-04-23T14:03:24.362Z,22.80
2023-04-23T14:05:26.160Z,22.70
2023-04-23T14:07:27.837Z,22.30
2023-04-23T14:09:29.990Z,21.60
2023-04-23T14:11:31.854Z,21.50
2023-04-23T14:13:33.619Z,21.10
2023-04-23T14:15:35.684Z,20.70
2023-04-23T14:17:39.393Z,20.50
2023-04-23T14:19:41.455Z,20.90
2023-04-23T14:21:43.511Z,21.60
2023-04-23T14:23:48.008Z,21.80
2023-04-23T14:25:58.340Z,22.10
2023-04-23T14:28:09.360Z,22.00
2023-04-23T14:30:16.917Z,22.00
2023-04-23T14:32:18.580Z,22.30
2023-04-23T14:34:21.265Z,22.10
2023-04-23T14:36:23.007Z,21.50
2023-04-23T14:38:26.680Z,21.50
2023-04-23T14:40:28.446Z,21.20
2023-04-23T14:42:30.100Z,21.10
2023-04-23T14:44:31.799Z,21.30
2023-04-23T14:46:33.533Z,21.40
2023-04-23T14:48:35.995Z,21.40
2023-04-23T14:50:37.694Z,21.20
2023-04-23T14:52:39.745Z,21.10
2023-04-23T14:54:41.417Z,21.00
2023-04-23T14:56:43.141Z,20.90
2023-04-23T14:58:44.908Z,20.60
2023-04-23T15:00:46.596Z,20.40
2023-04-23T15:02:48.387Z,20.30
2023-04-23T15:04:50.485Z,20.10
2023-04-23T15:06:52.152Z,19.90
2023-04-23T15:08:53.990Z,19.90
2023-04-23T15:10:55.636Z,20.00
2023-04-23T15:13:07.154Z,20.00
2023-04-23T15:15:22.224Z,20.10
2023-04-23T15:17:27.306Z,20.20
2023-04-23T15:19:31.012Z,20.10
2023-04-23T15:21:32.734Z,19.90
2023-04-23T15:23:34.474Z,19.70
2023-04-23T15:25:36.986Z,19.80
2023-04-23T15:27:38.922Z,19.80
2023-04-23T15:29:41.847Z,19.70
2023-04-23T15:31:43.869Z,19.60
2023-04-23T15:33:46.471Z,19.80
2023-04-23T15:35:50.874Z,19.50
2023-04-23T15:37:53.448Z,19.40
2023-04-23T15:39:57.951Z,19.30
2023-04-23T15:41:59.664Z,19.40
2023-04-23T15:44:02.171Z,19.40
2023-04-23T15:46:03.987Z,19.30
2023-04-23T15:48:05.762Z,19.30
2023-04-23T15:50:11.247Z,19.10
2023-04-23T15:52:12.914Z,19.10
2023-04-23T15:54:14.631Z,19.10
2023-04-23T15:56:16.395Z,18.80
2023-04-23T15:58:19.483Z,18.70
2023-04-23T16:00:21.170Z,18.60
2023-04-23T16:02:23.125Z,18.30
2023-04-23T16:04:25.119Z,18.10
2023-04-23T16:06:26.959Z,17.80
2023-04-23T16:08:28.646Z,17.30
2023-04-23T16:10:33.861Z,16.40
2023-04-23T16:12:35.827Z,15.50
2023-04-23T16:14:37.502Z,14.70
2023-04-23T16:16:39.368Z,14.30
2023-04-23T16:18:41.451Z,14.10
2023-04-23T16:20:43.199Z,14.00
2023-04-23T16:22:44.946Z,14.00
2023-04-23T16:24:46.775Z,14.00
2023-04-23T16:26:48.570Z,14.10
2023-04-23T16:28:52.422Z,14.10
2023-04-23T16:31:07.208Z,14.10
2023-04-23T16:33:09.963Z,14.20
2023-04-23T16:35:11.854Z,14.20
2023-04-23T16:37:15.789Z,14.10
2023-04-23T16:39:17.508Z,14.20
2023-04-23T16:41:19.739Z,14.20
2023-04-23T16:43:21.517Z,14.30
2023-04-23T16:45:23.308Z,14.30
2023-04-23T16:47:25.154Z,14.30
2023-04-23T16:49:26.932Z,14.30
2023-04-23T16:51:29.584Z,14.20
2023-04-23T16:53:31.420Z,14.00
2023-04-23T16:55:33.527Z,13.20
2023-04-23T16:57:36.499Z,12.50
2023-04-23T16:59:38.118Z,12.10
2023-04-23T17:01:39.791Z,11.80
2023-04-23T17:03:41.675Z,11.50
2023-04-23T17:05:44.076Z,11.30
2023-04-23T17:07:46.053Z,11.20
2023-04-23T17:09:47.781Z,11.10
2023-04-23T17:11:49.583Z,11.00
2023-04-23T17:13:51.966Z,10.90
2023-04-23T17:15:53.692Z,10.90
2023-04-23T17:17:55.463Z,10.80
2023-04-23T17:19:57.179Z,10.80
2023-04-23T17:21:58.939Z,10.70
2023-04-23T17:24:01.287Z,10.80
2023-04-23T17:26:03.120Z,10.80
2023-04-23T17:28:04.822Z,10.90
2023-04-23T17:30:07.195Z,10.90
2023-04-23T17:32:09.054Z,10.90
2023-04-23T17:34:11.289Z,10.90
2023-04-23T17:36:13.113Z,10.90
2023-04-23T17:38:19.636Z,10.90
2023-04-23T17:40:21.723Z,10.90
2023-04-23T17:42:23.674Z,10.90
2023-04-23T17:44:25.440Z,10.90
2023-04-23T17:46:27.365Z,10.90
2023-04-23T17:48:29.484Z,10.90
2023-04-23T17:50:31.265Z,10.80
2023-04-23T17:52:32.949Z,10.80
2023-04-23T17:54:34.970Z,10.80
2023-04-23T17:56:36.825Z,10.80
2023-04-23T17:58:38.603Z,10.80
2023-04-23T18:00:42.385Z,10.80
2023-04-23T18:02:45.129Z,10.80
2023-04-23T18:04:46.905Z,10.80
2023-04-23T18:06:48.643Z,10.80
2023-04-23T18:08:50.389Z,10.70
2023-04-23T18:10:52.097Z,10.80
2023-04-23T18:12:53.992Z,10.70
2023-04-23T18:14:55.714Z,10.70
2023-04-23T18:16:57.385Z,10.70
2023-04-23T18:18:59.160Z,10.70
2023-04-23T18:21:02.864Z,10.60
2023-04-23T18:23:05.371Z,10.60
2023-04-23T18:25:09.872Z,10.60
2023-04-23T18:27:11.883Z,10.60
2023-04-23T18:29:13.565Z,10.60
2023-04-23T18:31:15.366Z,10.50
2023-04-23T18:33:32.870Z,10.50
2023-04-23T18:35:34.676Z,10.50
2023-04-23T18:37:48.065Z,10.50
2023-04-23T18:39:49.702Z,10.50
2023-04-23T18:41:51.587Z,10.40
2023-04-23T18:43:53.614Z,10.40
2023-04-23T18:45:55.644Z,10.30
2023-04-23T18:48:02.751Z,10.30
2023-04-23T18:50:22.285Z,10.30
2023-04-23T18:52:23.907Z,10.20
2023-04-23T18:54:26.730Z,10.20
2023-04-23T18:56:28.435Z,10.20
2023-04-23T18:58:30.795Z,10.20
2023-04-23T19:00:32.557Z,10.20
2023-04-23T19:02:36.008Z,10.20
2023-04-23T19:04:38.025Z,10.20
2023-04-23T19:06:40.062Z,10.30
2023-04-23T19:08:42.445Z,10.30
2023-04-23T19:10:44.144Z,10.30
2023-04-23T19:12:45.843Z,10.30
2023-04-23T19:14:47.517Z,10.30
2023-04-23T19:16:50.890Z,10.30
2023-04-23T19:18:52.785Z,10.40
2023-04-23T19:20:54.638Z,10.50
2023-04-23T19:22:56.446Z,10.50
2023-04-23T19:24:58.089Z,10.60
2023-04-23T19:26:59.886Z,10.60
2023-04-23T19:29:02.480Z,10.70
2023-04-23T19:31:04.182Z,10.70
2023-04-23T19:33:06.353Z,10.70
2023-04-23T19:35:08.384Z,10.70
2023-04-23T19:37:10.202Z,10.80
2023-04-23T19:39:11.888Z,10.80
2023-04-23T19:41:14.444Z,10.90
2023-04-23T19:43:16.182Z,10.90
2023-04-23T19:45:18.412Z,10.90
2023-04-23T19:47:20.124Z,10.90
2023-04-23T19:49:21.881Z,10.90
2023-04-23T19:51:27.863Z,10.90
2023-04-23T19:53:29.780Z,10.80
2023-04-23T19:55:31.553Z,10.80
2023-04-23T19:57:33.296Z,10.70
2023-04-23T19:59:34.930Z,10.60
2023-04-23T20:01:37.193Z,10.50
2023-04-23T20:03:39.718Z,10.40
2023-04-23T20:05:43.511Z,10.30
2023-04-23T20:07:46.446Z,10.30
2023-04-23T20:09:48.073Z,10.20
2023-04-23T20:11:51.167Z,10.10
2023-04-23T20:13:52.797Z,10.00
2023-04-23T20:15:55.047Z,9.90
2023-04-23T20:17:56.927Z,9.80
2023-04-23T20:20:01.874Z,9.70
2023-04-23T20:22:03.875Z,9.60
2023-04-23T20:24:10.072Z,9.50
2023-04-23T20:26:11.752Z,9.40
2023-04-23T20:28:13.554Z,9.30
2023-04-23T20:30:16.482Z,9.30
2023-04-23T20:32:18.190Z,9.30
2023-04-23T20:34:19.817Z,9.30
2023-04-23T20:36:22.293Z,9.20
2023-04-23T20:38:24.649Z,9.20
2023-04-23T20:40:26.352Z,9.20
2023-04-23T20:42:29.097Z,9.30
2023-04-23T20:44:31.440Z,9.30
2023-04-23T20:46:33.214Z,9.20
2023-04-23T20:48:36.372Z,9.20
2023-04-23T20:50:38.043Z,9.20
2023-04-23T20:52:39.924Z,9.20
2023-04-23T20:54:42.278Z,9.20
2023-04-23T20:56:43.959Z,9.20
2023-04-23T20:58:45.655Z,9.20
2023-04-23T21:00:47.786Z,9.10
2023-04-23T21:02:49.603Z,9.10
2023-04-23T21:04:51.325Z,9.10
2023-04-23T21:06:53.000Z,9.10
2023-04-23T21:08:54.798Z,9.10
2023-04-23T21:10:57.300Z,9.00
2023-04-23T21:12:59.913Z,9.00
2023-04-23T21:15:01.835Z,9.00
2023-04-23T21:17:03.890Z,8.90
2023-04-23T21:19:05.912Z,8.90
2023-04-23T21:21:08.004Z,8.90
2023-04-23T21:23:11.273Z,8.90
2023-04-23T21:25:12.969Z,8.80
2023-04-23T21:27:21.275Z,8.80
2023-04-23T21:29:23.055Z,8.80
2023-04-23T21:31:38.292Z,8.80
2023-04-23T21:33:39.963Z,8.80
2023-04-23T21:35:42.782Z,8.80
2023-04-23T21:37:44.611Z,8.80
2023-04-23T21:39:46.223Z,8.80
2023-04-23T21:41:47.870Z,8.80
2023-04-23T21:43:49.568Z,8.80
2023-04-23T21:45:51.398Z,8.80
2023-04-23T21:47:53.054Z,8.70
2023-04-23T21:49:55.032Z,8.70
2023-04-23T21:51:56.704Z,8.70
2023-04-23T21:53:58.432Z,8.70
2023-04-23T21:56:00.162Z,8.80
2023-04-23T22:00:11.270Z,8.80
2023-04-23T22:02:13.026Z,8.80
2023-04-23T22:04:14.911Z,8.80
2023-04-23T22:06:17.515Z,8.90
2023-04-23T22:08:19.447Z,8.90
2023-04-23T22:10:21.664Z,8.90
2023-04-23T22:12:23.286Z,9.00
2023-04-23T22:14:24.944Z,9.00
2023-04-23T22:16:28.667Z,9.00
2023-04-23T22:18:31.274Z,9.00
2023-04-23T22:20:33.783Z,9.10
2023-04-23T22:22:36.821Z,9.10
2023-04-23T22:24:38.462Z,9.10
2023-04-23T22:26:40.154Z,9.10
2023-04-23T22:28:43.733Z,9.20
2023-04-23T22:30:45.440Z,9.10
2023-04-23T22:32:47.377Z,9.10
2023-04-23T22:34:49.223Z,9.10
2023-04-23T22:36:50.963Z,9.10
2023-04-23T22:38:52.639Z,9.10
2023-04-23T22:40:54.305Z,9.20
2023-04-23T22:42:56.068Z,9.20
2023-04-23T22:44:57.842Z,9.30
2023-04-23T22:46:59.544Z,9.30
2023-04-23T22:49:02.252Z,9.30
2023-04-23T22:51:05.487Z,9.30
2023-04-23T22:53:07.254Z,9.30
2023-04-23T22:55:09.154Z,9.30
2023-04-23T22:57:11.766Z,9.30
2023-04-23T22:59:13.523Z,9.30
2023-04-23T23:01:15.339Z,9.30
2023-04-23T23:03:17.301Z,9.30
2023-04-23T23:05:19.238Z,9.20
2023-04-23T23:07:21.052Z,9.20
2023-04-23T23:09:23.104Z,9.20
2023-04-23T23:11:28.632Z,9.30
2023-04-23T23:13:30.588Z,9.30
2023-04-23T23:15:32.273Z,9.30
2023-04-23T23:17:34.078Z,9.30
2023-04-23T23:19:35.868Z,9.30
2023-04-23T23:21:37.495Z,9.20
2023-04-23T23:23:39.376Z,9.20
2023-04-23T23:25:41.068Z,9.20
2023-04-23T23:27:42.768Z,9.20
2023-04-23T23:29:45.139Z,9.30
2023-04-23T23:31:47.062Z,9.30
2023-04-23T23:33:48.728Z,9.40
2023-04-23T23:35:50.867Z,9.30
2023-04-23T23:37:52.901Z,9.30
2023-04-23T23:39:54.607Z,9.30
2023-04-23T23:41:58.323Z,9.30
2023-04-23T23:44:01.190Z,9.30
2023-04-23T23:46:03.054Z,9.30
2023-04-23T23:48:07.674Z,9.30
2023-04-23T23:50:10.102Z,9.30
2023-04-23T23:52:11.956Z,9.30
2023-04-23T23:54:13.993Z,9.30
2023-04-23T23:56:15.826Z,9.20
2023-04-23T23:58:17.509Z,9.20
